sensor_id;sensor_type;location;lat;lon;timestamp;P1;durP1;ratioP1;P2;durP2;ratioP2
22812;SDS011;11573;51.334;3.244;2023-09-18T00:02:12;28.20;;;18.75;;
22812;SDS011;11573;51.334;3.244;2023-09-18T00:04:39;26.30;;;18.50;;
22812;SDS011;11573;51.334;3.244;2023-09-18T00:07:06;27.20;;;17.70;;
22812;SDS011;11573;51.334;3.244;2023-09-18T00:09:33;22.30;;;17.42;;
22812;SDS011;11573;51.334;3.244;2023-09-18T00:12:00;23.08;;;17.40;;
22812;SDS011;11573;51.334;3.244;2023-09-18T00:14:27;22.08;;;14.43;;
22812;SDS011;11573;51.334;3.244;2023-09-18T00:16:54;16.00;;;12.57;;
22812;SDS011;11573;51.334;3.244;2023-09-18T00:19:25;14.90;;;10.68;;
22812;SDS011;11573;51.334;3.244;2023-09-18T00:21:52;16.15;;;10.55;;
22812;SDS011;11573;51.334;3.244;2023-09-18T00:24:20;14.88;;;9.80;;
22812;SDS011;11573;51.334;3.244;2023-09-18T00:26:47;13.30;;;9.63;;
22812;SDS011;11573;51.334;3.244;2023-09-18T00:29:15;14.15;;;9.02;;
22812;SDS011;11573;51.334;3.244;2023-09-18T00:31:42;12.15;;;8.77;;
22812;SDS011;11573;51.334;3.244;2023-09-18T00:34:09;10.20;;;7.95;;
22812;SDS011;11573;51.334;3.244;2023-09-18T00:36:36;14.43;;;7.57;;
22812;SDS011;11573;51.334;3.244;2023-09-18T00:39:03;7.30;;;6.60;;
22812;SDS011;11573;51.334;3.244;2023-09-18T00:41:32;10.90;;;6.97;;
22812;SDS011;11573;51.334;3.244;2023-09-18T00:43:59;12.27;;;7.15;;
22812;SDS011;11573;51.334;3.244;2023-09-18T00:46:26;13.70;;;7.05;;
22812;SDS011;11573;51.334;3.244;2023-09-18T00:48:53;11.02;;;6.75;;
22812;SDS011;11573;51.334;3.244;2023-09-18T00:51:21;9.25;;;6.13;;
22812;SDS011;11573;51.334;3.244;2023-09-18T00:53:48;11.70;;;6.03;;
22812;SDS011;11573;51.334;3.244;2023-09-18T00:56:15;10.75;;;6.47;;
22812;SDS011;11573;51.334;3.244;2023-09-18T00:58:43;8.57;;;6.05;;
22812;SDS011;11573;51.334;3.244;2023-09-18T01:01:12;14.77;;;6.25;;
22812;SDS011;11573;51.334;3.244;2023-09-18T01:03:44;8.88;;;6.30;;
22812;SDS011;11573;51.334;3.244;2023-09-18T01:06:11;9.98;;;6.47;;
22812;SDS011;11573;51.334;3.244;2023-09-18T01:08:38;10.48;;;5.93;;
22812;SDS011;11573;51.334;3.244;2023-09-18T01:13:37;5.85;;;5.22;;
22812;SDS011;11573;51.334;3.244;2023-09-18T01:19:11;7.40;;;5.07;;
22812;SDS011;11573;51.334;3.244;2023-09-18T01:21:38;8.70;;;5.18;;
22812;SDS011;11573;51.334;3.244;2023-09-18T01:24:05;5.80;;;4.75;;
22812;SDS011;11573;51.334;3.244;2023-09-18T01:26:33;8.45;;;5.55;;
22812;SDS011;11573;51.334;3.244;2023-09-18T01:29:00;8.90;;;5.38;;
22812;SDS011;11573;51.334;3.244;2023-09-18T01:31:27;9.45;;;5.30;;
22812;SDS011;11573;51.334;3.244;2023-09-18T01:33:54;7.88;;;5.03;;
22812;SDS011;11573;51.334;3.244;2023-09-18T01:36:22;10.43;;;5.40;;
22812;SDS011;11573;51.334;3.244;2023-09-18T01:38:50;8.73;;;5.22;;
22812;SDS011;11573;51.334;3.244;2023-09-18T01:41:18;7.32;;;5.57;;
22812;SDS011;11573;51.334;3.244;2023-09-18T01:43:46;6.63;;;5.13;;
22812;SDS011;11573;51.334;3.244;2023-09-18T01:46:13;6.93;;;4.63;;
22812;SDS011;11573;51.334;3.244;2023-09-18T01:48:49;7.55;;;4.85;;
22812;SDS011;11573;51.334;3.244;2023-09-18T01:51:17;8.35;;;4.35;;
22812;SDS011;11573;51.334;3.244;2023-09-18T01:53:44;5.30;;;4.32;;
22812;SDS011;11573;51.334;3.244;2023-09-18T01:56:11;8.57;;;4.50;;
22812;SDS011;11573;51.334;3.244;2023-09-18T01:58:38;5.50;;;4.25;;
22812;SDS011;11573;51.334;3.244;2023-09-18T02:01:06;5.82;;;4.05;;
22812;SDS011;11573;51.334;3.244;2023-09-18T02:03:34;6.18;;;4.25;;
22812;SDS011;11573;51.334;3.244;2023-09-18T02:06:21;6.22;;;4.78;;
22812;SDS011;11573;51.334;3.244;2023-09-18T02:08:48;6.45;;;5.35;;
22812;SDS011;11573;51.334;3.244;2023-09-18T02:11:15;7.93;;;5.38;;
22812;SDS011;11573;51.334;3.244;2023-09-18T02:13:42;8.07;;;5.13;;
22812;SDS011;11573;51.334;3.244;2023-09-18T02:16:09;10.45;;;6.82;;
22812;SDS011;11573;51.334;3.244;2023-09-18T02:18:36;8.68;;;6.25;;
22812;SDS011;11573;51.334;3.244;2023-09-18T02:21:03;9.45;;;6.53;;
22812;SDS011;11573;51.334;3.244;2023-09-18T02:23:30;10.02;;;7.03;;
22812;SDS011;11573;51.334;3.244;2023-09-18T02:25:58;8.88;;;6.10;;
22812;SDS011;11573;51.334;3.244;2023-09-18T02:28:25;9.48;;;6.90;;
22812;SDS011;11573;51.334;3.244;2023-09-18T02:30:52;8.43;;;6.30;;
22812;SDS011;11573;51.334;3.244;2023-09-18T02:33:19;9.90;;;6.60;;
22812;SDS011;11573;51.334;3.244;2023-09-18T02:35:46;11.52;;;6.75;;
22812;SDS011;11573;51.334;3.244;2023-09-18T02:38:13;9.43;;;7.15;;
22812;SDS011;11573;51.334;3.244;2023-09-18T02:40:40;11.88;;;7.53;;
22812;SDS011;11573;51.334;3.244;2023-09-18T02:43:07;10.13;;;7.35;;
22812;SDS011;11573;51.334;3.244;2023-09-18T02:45:34;12.05;;;7.55;;
22812;SDS011;11573;51.334;3.244;2023-09-18T02:48:01;12.95;;;8.43;;
22812;SDS011;11573;51.334;3.244;2023-09-18T02:50:28;9.75;;;7.70;;
22812;SDS011;11573;51.334;3.244;2023-09-18T02:52:55;12.15;;;8.10;;
22812;SDS011;11573;51.334;3.244;2023-09-18T02:55:23;16.58;;;9.27;;
22812;SDS011;11573;51.334;3.244;2023-09-18T02:57:49;14.25;;;9.23;;
22812;SDS011;11573;51.334;3.244;2023-09-18T03:00:16;11.10;;;8.32;;
22812;SDS011;11573;51.334;3.244;2023-09-18T03:02:58;12.07;;;8.68;;
22812;SDS011;11573;51.334;3.244;2023-09-18T03:05:25;13.07;;;8.90;;
22812;SDS011;11573;51.334;3.244;2023-09-18T03:07:53;15.90;;;9.52;;
22812;SDS011;11573;51.334;3.244;2023-09-18T03:10:20;10.82;;;9.00;;
22812;SDS011;11573;51.334;3.244;2023-09-18T03:12:47;12.93;;;8.63;;
22812;SDS011;11573;51.334;3.244;2023-09-18T03:15:15;14.30;;;9.07;;
22812;SDS011;11573;51.334;3.244;2023-09-18T03:17:43;10.60;;;8.85;;
22812;SDS011;11573;51.334;3.244;2023-09-18T03:20:10;11.65;;;8.35;;
22812;SDS011;11573;51.334;3.244;2023-09-18T03:22:38;12.00;;;8.00;;
22812;SDS011;11573;51.334;3.244;2023-09-18T03:25:05;8.70;;;7.60;;
22812;SDS011;11573;51.334;3.244;2023-09-18T03:27:32;11.55;;;7.30;;
22812;SDS011;11573;51.334;3.244;2023-09-18T03:29:59;12.02;;;7.82;;
22812;SDS011;11573;51.334;3.244;2023-09-18T03:32:27;9.75;;;7.75;;
22812;SDS011;11573;51.334;3.244;2023-09-18T03:34:54;13.70;;;8.98;;
22812;SDS011;11573;51.334;3.244;2023-09-18T03:37:21;12.45;;;8.60;;
22812;SDS011;11573;51.334;3.244;2023-09-18T03:39:48;10.85;;;8.40;;
22812;SDS011;11573;51.334;3.244;2023-09-18T03:42:15;13.10;;;9.02;;
22812;SDS011;11573;51.334;3.244;2023-09-18T03:44:42;12.98;;;8.75;;
22812;SDS011;11573;51.334;3.244;2023-09-18T03:47:10;10.95;;;7.80;;
22812;SDS011;11573;51.334;3.244;2023-09-18T03:49:36;10.93;;;7.50;;
22812;SDS011;11573;51.334;3.244;2023-09-18T03:52:03;9.95;;;7.43;;
22812;SDS011;11573;51.334;3.244;2023-09-18T03:54:31;12.20;;;7.70;;
22812;SDS011;11573;51.334;3.244;2023-09-18T03:56:58;10.40;;;6.85;;
22812;SDS011;11573;51.334;3.244;2023-09-18T03:59:25;10.90;;;6.68;;
22812;SDS011;11573;51.334;3.244;2023-09-18T04:01:52;7.43;;;5.88;;
22812;SDS011;11573;51.334;3.244;2023-09-18T04:04:19;13.07;;;7.00;;
22812;SDS011;11573;51.334;3.244;2023-09-18T04:06:46;8.18;;;5.75;;
22812;SDS011;11573;51.334;3.244;2023-09-18T04:09:13;13.57;;;6.18;;
22812;SDS011;11573;51.334;3.244;2023-09-18T04:11:41;8.98;;;6.25;;
22812;SDS011;11573;51.334;3.244;2023-09-18T04:14:08;10.63;;;6.40;;
22812;SDS011;11573;51.334;3.244;2023-09-18T04:16:35;7.85;;;6.57;;
22812;SDS011;11573;51.334;3.244;2023-09-18T04:19:03;8.55;;;6.10;;
22812;SDS011;11573;51.334;3.244;2023-09-18T04:21:30;8.30;;;6.15;;
22812;SDS011;11573;51.334;3.244;2023-09-18T04:23:57;8.52;;;5.28;;
22812;SDS011;11573;51.334;3.244;2023-09-18T04:26:25;8.48;;;5.40;;
22812;SDS011;11573;51.334;3.244;2023-09-18T04:28:57;10.30;;;5.25;;
22812;SDS011;11573;51.334;3.244;2023-09-18T04:31:27;8.23;;;4.97;;
22812;SDS011;11573;51.334;3.244;2023-09-18T04:33:55;6.22;;;4.82;;
22812;SDS011;11573;51.334;3.244;2023-09-18T04:36:23;8.00;;;4.78;;
22812;SDS011;11573;51.334;3.244;2023-09-18T04:38:51;6.78;;;4.75;;
22812;SDS011;11573;51.334;3.244;2023-09-18T04:41:18;4.78;;;3.72;;
22812;SDS011;11573;51.334;3.244;2023-09-18T04:43:45;6.93;;;3.85;;
22812;SDS011;11573;51.334;3.244;2023-09-18T04:46:12;5.50;;;3.90;;
22812;SDS011;11573;51.334;3.244;2023-09-18T04:48:40;7.32;;;3.90;;
22812;SDS011;11573;51.334;3.244;2023-09-18T04:51:07;6.93;;;3.50;;
22812;SDS011;11573;51.334;3.244;2023-09-18T04:53:34;6.05;;;4.10;;
22812;SDS011;11573;51.334;3.244;2023-09-18T04:56:01;4.15;;;3.67;;
22812;SDS011;11573;51.334;3.244;2023-09-18T04:58:30;7.10;;;4.07;;
22812;SDS011;11573;51.334;3.244;2023-09-18T05:00:58;5.18;;;3.60;;
22812;SDS011;11573;51.334;3.244;2023-09-18T05:03:26;7.85;;;4.03;;
22812;SDS011;11573;51.334;3.244;2023-09-18T05:05:56;8.40;;;4.40;;
22812;SDS011;11573;51.334;3.244;2023-09-18T05:08:23;5.50;;;3.60;;
22812;SDS011;11573;51.334;3.244;2023-09-18T05:10:50;4.78;;;3.67;;
22812;SDS011;11573;51.334;3.244;2023-09-18T05:13:18;9.45;;;4.65;;
22812;SDS011;11573;51.334;3.244;2023-09-18T05:15:44;5.97;;;4.57;;
22812;SDS011;11573;51.334;3.244;2023-09-18T05:18:11;8.43;;;4.60;;
22812;SDS011;11573;51.334;3.244;2023-09-18T05:20:39;5.72;;;4.10;;
22812;SDS011;11573;51.334;3.244;2023-09-18T05:23:06;6.38;;;4.10;;
22812;SDS011;11573;51.334;3.244;2023-09-18T05:25:34;8.93;;;4.97;;
22812;SDS011;11573;51.334;3.244;2023-09-18T05:28:04;11.85;;;4.68;;
22812;SDS011;11573;51.334;3.244;2023-09-18T05:30:32;6.03;;;4.43;;
22812;SDS011;11573;51.334;3.244;2023-09-18T05:35:43;6.20;;;4.57;;
22812;SDS011;11573;51.334;3.244;2023-09-18T05:38:12;6.10;;;4.43;;
22812;SDS011;11573;51.334;3.244;2023-09-18T05:40:40;10.27;;;4.38;;
22812;SDS011;11573;51.334;3.244;2023-09-18T05:43:08;8.60;;;5.00;;
22812;SDS011;11573;51.334;3.244;2023-09-18T05:45:36;8.20;;;4.95;;
22812;SDS011;11573;51.334;3.244;2023-09-18T05:48:03;7.07;;;4.60;;
22812;SDS011;11573;51.334;3.244;2023-09-18T05:50:31;8.07;;;4.28;;
22812;SDS011;11573;51.334;3.244;2023-09-18T05:53:02;12.52;;;5.13;;
22812;SDS011;11573;51.334;3.244;2023-09-18T05:55:33;7.97;;;4.10;;
22812;SDS011;11573;51.334;3.244;2023-09-18T05:58:01;6.13;;;4.63;;
22812;SDS011;11573;51.334;3.244;2023-09-18T06:00:31;7.28;;;4.75;;
22812;SDS011;11573;51.334;3.244;2023-09-18T06:02:59;10.43;;;4.68;;
22812;SDS011;11573;51.334;3.244;2023-09-18T06:05:26;6.60;;;4.53;;
22812;SDS011;11573;51.334;3.244;2023-09-18T06:07:53;6.30;;;4.43;;
22812;SDS011;11573;51.334;3.244;2023-09-18T06:10:20;6.68;;;4.80;;
22812;SDS011;11573;51.334;3.244;2023-09-18T06:12:47;6.20;;;4.60;;
22812;SDS011;11573;51.334;3.244;2023-09-18T06:15:14;9.40;;;4.47;;
22812;SDS011;11573;51.334;3.244;2023-09-18T06:17:42;7.30;;;4.80;;
22812;SDS011;11573;51.334;3.244;2023-09-18T06:20:11;12.68;;;4.90;;
22812;SDS011;11573;51.334;3.244;2023-09-18T06:22:42;7.80;;;4.70;;
22812;SDS011;11573;51.334;3.244;2023-09-18T06:25:10;9.23;;;4.80;;
22812;SDS011;11573;51.334;3.244;2023-09-18T06:27:37;7.28;;;4.65;;
22812;SDS011;11573;51.334;3.244;2023-09-18T06:30:04;6.70;;;4.22;;
22812;SDS011;11573;51.334;3.244;2023-09-18T06:32:32;7.38;;;4.38;;
22812;SDS011;11573;51.334;3.244;2023-09-18T06:35:00;6.80;;;3.67;;
22812;SDS011;11573;51.334;3.244;2023-09-18T06:37:27;6.25;;;3.65;;
22812;SDS011;11573;51.334;3.244;2023-09-18T06:39:54;8.60;;;3.80;;
22812;SDS011;11573;51.334;3.244;2023-09-18T06:42:23;5.45;;;3.47;;
22812;SDS011;11573;51.334;3.244;2023-09-18T06:44:56;8.23;;;3.50;;
22812;SDS011;11573;51.334;3.244;2023-09-18T06:47:23;8.65;;;3.63;;
22812;SDS011;11573;51.334;3.244;2023-09-18T06:49:53;5.40;;;3.60;;
22812;SDS011;11573;51.334;3.244;2023-09-18T06:52:20;8.85;;;3.42;;
22812;SDS011;11573;51.334;3.244;2023-09-18T06:54:47;4.47;;;3.33;;
22812;SDS011;11573;51.334;3.244;2023-09-18T06:57:14;5.78;;;3.17;;
22812;SDS011;11573;51.334;3.244;2023-09-18T06:59:41;6.45;;;3.10;;
22812;SDS011;11573;51.334;3.244;2023-09-18T07:02:08;7.00;;;3.17;;
22812;SDS011;11573;51.334;3.244;2023-09-18T07:04:36;5.50;;;3.42;;
22812;SDS011;11573;51.334;3.244;2023-09-18T07:07:12;6.43;;;3.22;;
22812;SDS011;11573;51.334;3.244;2023-09-18T07:09:40;6.15;;;3.10;;
22812;SDS011;11573;51.334;3.244;2023-09-18T07:12:28;5.07;;;3.22;;
22812;SDS011;11573;51.334;3.244;2023-09-18T07:14:55;4.93;;;3.33;;
22812;SDS011;11573;51.334;3.244;2023-09-18T07:17:22;5.72;;;3.45;;
22812;SDS011;11573;51.334;3.244;2023-09-18T07:19:49;5.15;;;3.53;;
22812;SDS011;11573;51.334;3.244;2023-09-18T07:22:16;7.95;;;3.33;;
22812;SDS011;11573;51.334;3.244;2023-09-18T07:24:43;5.35;;;3.50;;
22812;SDS011;11573;51.334;3.244;2023-09-18T07:27:11;5.10;;;3.42;;
22812;SDS011;11573;51.334;3.244;2023-09-18T07:29:39;8.48;;;3.70;;
22812;SDS011;11573;51.334;3.244;2023-09-18T07:32:06;6.38;;;3.95;;
22812;SDS011;11573;51.334;3.244;2023-09-18T07:34:34;10.07;;;4.45;;
22812;SDS011;11573;51.334;3.244;2023-09-18T07:37:01;6.18;;;3.70;;
22812;SDS011;11573;51.334;3.244;2023-09-18T07:39:28;6.20;;;4.15;;
22812;SDS011;11573;51.334;3.244;2023-09-18T07:41:56;6.90;;;4.38;;
22812;SDS011;11573;51.334;3.244;2023-09-18T07:44:23;8.35;;;3.92;;
22812;SDS011;11573;51.334;3.244;2023-09-18T07:46:51;6.35;;;3.92;;
22812;SDS011;11573;51.334;3.244;2023-09-18T07:49:18;11.95;;;4.78;;
22812;SDS011;11573;51.334;3.244;2023-09-18T07:51:45;9.35;;;4.53;;
22812;SDS011;11573;51.334;3.244;2023-09-18T07:54:13;10.75;;;4.15;;
22812;SDS011;11573;51.334;3.244;2023-09-18T07:56:42;10.10;;;5.07;;
22812;SDS011;11573;51.334;3.244;2023-09-18T07:59:09;8.00;;;4.25;;
22812;SDS011;11573;51.334;3.244;2023-09-18T08:01:37;10.02;;;4.68;;
22812;SDS011;11573;51.334;3.244;2023-09-18T08:04:04;7.95;;;4.53;;
22812;SDS011;11573;51.334;3.244;2023-09-18T08:06:32;9.43;;;4.22;;
22812;SDS011;11573;51.334;3.244;2023-09-18T08:09:00;4.80;;;3.67;;
22812;SDS011;11573;51.334;3.244;2023-09-18T08:11:27;6.57;;;4.25;;
22812;SDS011;11573;51.334;3.244;2023-09-18T08:13:54;12.65;;;4.82;;
22812;SDS011;11573;51.334;3.244;2023-09-18T08:16:21;6.32;;;3.78;;
22812;SDS011;11573;51.334;3.244;2023-09-18T08:18:48;9.65;;;4.47;;
22812;SDS011;11573;51.334;3.244;2023-09-18T08:21:16;7.70;;;4.30;;
22812;SDS011;11573;51.334;3.244;2023-09-18T08:23:43;8.20;;;4.30;;
22812;SDS011;11573;51.334;3.244;2023-09-18T08:26:11;5.50;;;4.05;;
22812;SDS011;11573;51.334;3.244;2023-09-18T08:28:38;6.38;;;3.80;;
22812;SDS011;11573;51.334;3.244;2023-09-18T08:31:10;8.45;;;4.25;;
22812;SDS011;11573;51.334;3.244;2023-09-18T08:33:37;6.85;;;4.13;;
22812;SDS011;11573;51.334;3.244;2023-09-18T08:36:04;6.63;;;4.35;;
22812;SDS011;11573;51.334;3.244;2023-09-18T08:38:31;6.28;;;3.92;;
22812;SDS011;11573;51.334;3.244;2023-09-18T08:40:58;6.70;;;3.78;;
22812;SDS011;11573;51.334;3.244;2023-09-18T08:43:25;9.90;;;4.00;;
22812;SDS011;11573;51.334;3.244;2023-09-18T08:45:55;11.95;;;4.35;;
22812;SDS011;11573;51.334;3.244;2023-09-18T08:48:28;8.27;;;3.90;;
22812;SDS011;11573;51.334;3.244;2023-09-18T08:51:05;10.10;;;3.72;;
22812;SDS011;11573;51.334;3.244;2023-09-18T08:53:33;6.28;;;3.55;;
22812;SDS011;11573;51.334;3.244;2023-09-18T08:56:02;4.53;;;3.15;;
22812;SDS011;11573;51.334;3.244;2023-09-18T08:58:31;7.20;;;4.00;;
22812;SDS011;11573;51.334;3.244;2023-09-18T09:01:04;6.97;;;3.30;;
22812;SDS011;11573;51.334;3.244;2023-09-18T09:03:32;7.32;;;3.25;;
22812;SDS011;11573;51.334;3.244;2023-09-18T09:06:00;9.52;;;3.88;;
22812;SDS011;11573;51.334;3.244;2023-09-18T09:08:28;7.32;;;3.38;;
22812;SDS011;11573;51.334;3.244;2023-09-18T09:10:55;5.07;;;3.38;;
22812;SDS011;11573;51.334;3.244;2023-09-18T09:13:25;8.63;;;3.58;;
22812;SDS011;11573;51.334;3.244;2023-09-18T09:16:07;7.68;;;3.97;;
22812;SDS011;11573;51.334;3.244;2023-09-18T09:18:49;8.65;;;3.42;;
22812;SDS011;11573;51.334;3.244;2023-09-18T09:21:18;4.35;;;3.92;;
22812;SDS011;11573;51.334;3.244;2023-09-18T09:23:50;7.05;;;4.03;;
22812;SDS011;11573;51.334;3.244;2023-09-18T09:26:20;6.88;;;3.60;;
22812;SDS011;11573;51.334;3.244;2023-09-18T09:28:49;9.93;;;4.07;;
22812;SDS011;11573;51.334;3.244;2023-09-18T09:31:24;6.50;;;3.97;;
22812;SDS011;11573;51.334;3.244;2023-09-18T09:33:54;6.55;;;3.97;;
22812;SDS011;11573;51.334;3.244;2023-09-18T09:36:26;10.02;;;3.83;;
22812;SDS011;11573;51.334;3.244;2023-09-18T09:38:56;11.10;;;4.53;;
22812;SDS011;11573;51.334;3.244;2023-09-18T09:41:26;9.95;;;4.47;;
22812;SDS011;11573;51.334;3.244;2023-09-18T09:43:54;7.07;;;4.32;;
22812;SDS011;11573;51.334;3.244;2023-09-18T09:46:22;6.55;;;4.45;;
22812;SDS011;11573;51.334;3.244;2023-09-18T09:48:59;10.25;;;4.47;;
22812;SDS011;11573;51.334;3.244;2023-09-18T09:51:28;7.13;;;4.20;;
22812;SDS011;11573;51.334;3.244;2023-09-18T09:53:55;6.43;;;4.15;;
22812;SDS011;11573;51.334;3.244;2023-09-18T09:59:30;5.50;;;3.97;;
22812;SDS011;11573;51.334;3.244;2023-09-18T10:02:01;8.65;;;3.92;;
22812;SDS011;11573;51.334;3.244;2023-09-18T10:04:30;5.30;;;3.70;;
22812;SDS011;11573;51.334;3.244;2023-09-18T10:07:06;9.82;;;4.47;;
22812;SDS011;11573;51.334;3.244;2023-09-18T10:09:35;6.45;;;3.60;;
22812;SDS011;11573;51.334;3.244;2023-09-18T10:12:09;7.80;;;3.65;;
22812;SDS011;11573;51.334;3.244;2023-09-18T10:14:37;8.35;;;3.90;;
22812;SDS011;11573;51.334;3.244;2023-09-18T10:17:25;10.27;;;4.47;;
22812;SDS011;11573;51.334;3.244;2023-09-18T10:20:09;5.80;;;3.40;;
22812;SDS011;11573;51.334;3.244;2023-09-18T10:22:51;5.35;;;3.45;;
22812;SDS011;11573;51.334;3.244;2023-09-18T10:25:21;7.03;;;3.25;;
22812;SDS011;11573;51.334;3.244;2023-09-18T10:27:54;6.35;;;3.40;;
22812;SDS011;11573;51.334;3.244;2023-09-18T10:30:28;9.90;;;3.47;;
22812;SDS011;11573;51.334;3.244;2023-09-18T10:32:59;6.93;;;3.75;;
22812;SDS011;11573;51.334;3.244;2023-09-18T10:35:27;7.80;;;3.20;;
22812;SDS011;11573;51.334;3.244;2023-09-18T10:37:55;6.43;;;3.50;;
22812;SDS011;11573;51.334;3.244;2023-09-18T10:40:23;5.60;;;3.60;;
22812;SDS011;11573;51.334;3.244;2023-09-18T10:42:54;10.85;;;3.58;;
22812;SDS011;11573;51.334;3.244;2023-09-18T10:45:24;4.70;;;3.22;;
22812;SDS011;11573;51.334;3.244;2023-09-18T10:47:52;4.72;;;3.20;;
22812;SDS011;11573;51.334;3.244;2023-09-18T10:50:24;6.28;;;3.33;;
22812;SDS011;11573;51.334;3.244;2023-09-18T10:52:52;6.55;;;3.60;;
22812;SDS011;11573;51.334;3.244;2023-09-18T10:55:20;5.80;;;3.10;;
22812;SDS011;11573;51.334;3.244;2023-09-18T10:58:06;7.95;;;3.53;;
22812;SDS011;11573;51.334;3.244;2023-09-18T11:00:33;4.53;;;2.70;;
22812;SDS011;11573;51.334;3.244;2023-09-18T11:03:10;5.63;;;2.88;;
22812;SDS011;11573;51.334;3.244;2023-09-18T11:05:39;4.47;;;2.70;;
22812;SDS011;11573;51.334;3.244;2023-09-18T11:13:28;7.55;;;2.63;;
22812;SDS011;11573;51.334;3.244;2023-09-18T11:16:13;4.28;;;2.83;;
22812;SDS011;11573;51.334;3.244;2023-09-18T11:21:26;5.78;;;2.80;;
22812;SDS011;11573;51.334;3.244;2023-09-18T11:24:01;7.05;;;2.70;;
22812;SDS011;11573;51.334;3.244;2023-09-18T11:26:40;4.55;;;2.60;;
22812;SDS011;11573;51.334;3.244;2023-09-18T11:29:08;6.20;;;2.88;;
22812;SDS011;11573;51.334;3.244;2023-09-18T11:31:44;4.00;;;2.63;;
22812;SDS011;11573;51.334;3.244;2023-09-18T11:36:57;6.20;;;2.58;;
22812;SDS011;11573;51.334;3.244;2023-09-18T11:39:37;3.25;;;2.90;;
22812;SDS011;11573;51.334;3.244;2023-09-18T11:42:14;11.32;;;2.85;;
22812;SDS011;11573;51.334;3.244;2023-09-18T11:44:45;5.15;;;2.95;;
22812;SDS011;11573;51.334;3.244;2023-09-18T11:47:15;6.95;;;3.10;;
22812;SDS011;11573;51.334;3.244;2023-09-18T11:49:55;4.50;;;2.70;;
22812;SDS011;11573;51.334;3.244;2023-09-18T11:52:28;3.55;;;2.78;;
22812;SDS011;11573;51.334;3.244;2023-09-18T11:54:57;6.35;;;3.20;;
22812;SDS011;11573;51.334;3.244;2023-09-18T11:57:26;5.53;;;2.47;;
22812;SDS011;11573;51.334;3.244;2023-09-18T11:59:56;6.15;;;2.30;;
22812;SDS011;11573;51.334;3.244;2023-09-18T12:02:29;7.88;;;3.00;;
22812;SDS011;11573;51.334;3.244;2023-09-18T12:05:09;4.95;;;2.70;;
22812;SDS011;11573;51.334;3.244;2023-09-18T12:07:40;6.57;;;2.78;;
22812;SDS011;11573;51.334;3.244;2023-09-18T12:10:15;4.78;;;2.20;;
22812;SDS011;11573;51.334;3.244;2023-09-18T12:12:44;7.53;;;2.85;;
22812;SDS011;11573;51.334;3.244;2023-09-18T12:15:11;5.95;;;2.80;;
22812;SDS011;11573;51.334;3.244;2023-09-18T12:17:40;3.92;;;2.35;;
22812;SDS011;11573;51.334;3.244;2023-09-18T12:20:14;5.07;;;2.42;;
22812;SDS011;11573;51.334;3.244;2023-09-18T12:22:49;5.63;;;2.50;;
22812;SDS011;11573;51.334;3.244;2023-09-18T12:25:20;5.20;;;2.72;;
22812;SDS011;11573;51.334;3.244;2023-09-18T12:27:52;9.02;;;2.95;;
22812;SDS011;11573;51.334;3.244;2023-09-18T12:30:20;6.25;;;2.88;;
22812;SDS011;11573;51.334;3.244;2023-09-18T12:32:50;7.93;;;3.00;;
22812;SDS011;11573;51.334;3.244;2023-09-18T12:35:18;5.00;;;2.33;;
22812;SDS011;11573;51.334;3.244;2023-09-18T12:37:45;4.63;;;2.63;;
22812;SDS011;11573;51.334;3.244;2023-09-18T12:40:25;5.90;;;2.63;;
22812;SDS011;11573;51.334;3.244;2023-09-18T12:42:55;10.13;;;3.17;;
22812;SDS011;11573;51.334;3.244;2023-09-18T12:45:26;10.20;;;3.10;;
22812;SDS011;11573;51.334;3.244;2023-09-18T12:47:56;13.35;;;4.13;;
22812;SDS011;11573;51.334;3.244;2023-09-18T12:50:25;7.35;;;2.58;;
22812;SDS011;11573;51.334;3.244;2023-09-18T12:52:52;7.28;;;2.20;;
22812;SDS011;11573;51.334;3.244;2023-09-18T12:57:53;10.20;;;2.65;;
22812;SDS011;11573;51.334;3.244;2023-09-18T13:00:21;5.15;;;2.58;;
22812;SDS011;11573;51.334;3.244;2023-09-18T13:02:49;6.32;;;2.67;;
22812;SDS011;11573;51.334;3.244;2023-09-18T13:05:23;3.40;;;2.60;;
22812;SDS011;11573;51.334;3.244;2023-09-18T13:07:53;5.53;;;2.50;;
22812;SDS011;11573;51.334;3.244;2023-09-18T13:10:20;10.30;;;2.53;;
22812;SDS011;11573;51.334;3.244;2023-09-18T13:12:52;3.20;;;2.30;;
22812;SDS011;11573;51.334;3.244;2023-09-18T13:15:25;8.48;;;2.75;;
22812;SDS011;11573;51.334;3.244;2023-09-18T13:17:54;7.88;;;2.85;;
22812;SDS011;11573;51.334;3.244;2023-09-18T13:20:24;3.38;;;2.80;;
22812;SDS011;11573;51.334;3.244;2023-09-18T13:22:53;6.03;;;2.35;;
22812;SDS011;11573;51.334;3.244;2023-09-18T13:25:31;5.28;;;2.50;;
22812;SDS011;11573;51.334;3.244;2023-09-18T13:28:02;3.60;;;2.70;;
22812;SDS011;11573;51.334;3.244;2023-09-18T13:30:30;6.25;;;2.72;;
22812;SDS011;11573;51.334;3.244;2023-09-18T13:33:01;3.95;;;3.05;;
22812;SDS011;11573;51.334;3.244;2023-09-18T13:35:34;5.38;;;2.30;;
22812;SDS011;11573;51.334;3.244;2023-09-18T13:38:04;5.47;;;2.40;;
22812;SDS011;11573;51.334;3.244;2023-09-18T13:40:32;4.82;;;2.13;;
22812;SDS011;11573;51.334;3.244;2023-09-18T13:42:59;3.95;;;2.42;;
22812;SDS011;11573;51.334;3.244;2023-09-18T13:45:26;4.18;;;2.22;;
22812;SDS011;11573;51.334;3.244;2023-09-18T13:47:53;3.88;;;2.25;;
22812;SDS011;11573;51.334;3.244;2023-09-18T13:50:21;5.10;;;2.10;;
22812;SDS011;11573;51.334;3.244;2023-09-18T13:52:48;5.90;;;1.98;;
22812;SDS011;11573;51.334;3.244;2023-09-18T13:55:15;5.82;;;2.40;;
22812;SDS011;11573;51.334;3.244;2023-09-18T13:57:42;5.93;;;2.22;;
22812;SDS011;11573;51.334;3.244;2023-09-18T14:00:10;8.52;;;2.47;;
22812;SDS011;11573;51.334;3.244;2023-09-18T14:02:38;5.85;;;2.38;;
22812;SDS011;11573;51.334;3.244;2023-09-18T14:05:06;5.22;;;2.42;;
22812;SDS011;11573;51.334;3.244;2023-09-18T14:07:34;15.57;;;3.63;;
22812;SDS011;11573;51.334;3.244;2023-09-18T14:10:07;6.35;;;2.47;;
22812;SDS011;11573;51.334;3.244;2023-09-18T14:12:37;6.07;;;2.88;;
22812;SDS011;11573;51.334;3.244;2023-09-18T14:15:05;7.45;;;2.35;;
22812;SDS011;11573;51.334;3.244;2023-09-18T14:17:36;7.95;;;2.35;;
22812;SDS011;11573;51.334;3.244;2023-09-18T14:20:04;5.80;;;2.17;;
22812;SDS011;11573;51.334;3.244;2023-09-18T14:22:33;9.60;;;2.45;;
22812;SDS011;11573;51.334;3.244;2023-09-18T14:25:02;10.93;;;2.50;;
22812;SDS011;11573;51.334;3.244;2023-09-18T14:27:33;9.88;;;2.83;;
22812;SDS011;11573;51.334;3.244;2023-09-18T14:30:02;8.15;;;2.72;;
22812;SDS011;11573;51.334;3.244;2023-09-18T14:32:34;9.40;;;2.65;;
22812;SDS011;11573;51.334;3.244;2023-09-18T14:35:05;6.25;;;2.40;;
22812;SDS011;11573;51.334;3.244;2023-09-18T14:37:35;6.82;;;2.67;;
22812;SDS011;11573;51.334;3.244;2023-09-18T14:40:03;10.98;;;2.70;;
22812;SDS011;11573;51.334;3.244;2023-09-18T14:42:30;7.25;;;2.72;;
22812;SDS011;11573;51.334;3.244;2023-09-18T14:44:58;8.55;;;3.00;;
22812;SDS011;11573;51.334;3.244;2023-09-18T14:47:28;10.35;;;2.70;;
22812;SDS011;11573;51.334;3.244;2023-09-18T14:49:55;11.82;;;2.70;;
22812;SDS011;11573;51.334;3.244;2023-09-18T14:52:28;12.68;;;3.10;;
22812;SDS011;11573;51.334;3.244;2023-09-18T14:54:56;12.98;;;3.65;;
22812;SDS011;11573;51.334;3.244;2023-09-18T14:57:23;10.93;;;2.65;;
22812;SDS011;11573;51.334;3.244;2023-09-18T14:59:50;10.50;;;2.95;;
22812;SDS011;11573;51.334;3.244;2023-09-18T15:02:17;11.20;;;3.05;;
22812;SDS011;11573;51.334;3.244;2023-09-18T15:04:45;11.88;;;3.38;;
22812;SDS011;11573;51.334;3.244;2023-09-18T15:07:13;10.93;;;2.90;;
22812;SDS011;11573;51.334;3.244;2023-09-18T15:09:41;9.77;;;3.03;;
22812;SDS011;11573;51.334;3.244;2023-09-18T15:12:08;10.55;;;2.53;;
22812;SDS011;11573;51.334;3.244;2023-09-18T15:14:37;5.97;;;2.42;;
22812;SDS011;11573;51.334;3.244;2023-09-18T15:17:05;8.27;;;2.70;;
22812;SDS011;11573;51.334;3.244;2023-09-18T15:19:34;11.13;;;2.60;;